createdAt,value
2022-09-15T00:00:27.286Z,98848.47
2022-09-15T00:02:54.053Z,98849.13
2022-09-15T00:05:20.926Z,98845.16
2022-09-15T00:07:47.670Z,98842.69
2022-09-15T00:10:14.278Z,98827.13
2022-09-15T00:12:40.868Z,98824.66
2022-09-15T00:15:07.870Z,98827.97
2022-09-15T00:17:34.607Z,98824.25
2022-09-15T00:20:01.349Z,98818.84
2022-09-15T00:22:28.163Z,98822.38
2022-09-15T00:24:54.824Z,98821.94
2022-09-15T00:27:21.446Z,98826.53
2022-09-15T00:29:48.100Z,98818.25
2022-09-15T00:32:14.937Z,98811.59
2022-09-15T00:34:41.651Z,98807.84
2022-09-15T00:37:08.417Z,98807.84
2022-09-15T00:39:36.094Z,98808.66
2022-09-15T00:42:03.851Z,98817.78
2022-09-15T00:44:36.494Z,98804.78
2022-09-15T00:47:18.669Z,98801.47
2022-09-15T00:49:46.063Z,98804.53
2022-09-15T00:52:17.718Z,98802.91
2022-09-15T00:54:57.971Z,98806.84
2022-09-15T00:57:28.719Z,98802.88
2022-09-15T00:59:56.772Z,98801.38
2022-09-15T01:02:32.883Z,98804.91
2022-09-15T01:05:02.288Z,98801.56
2022-09-15T01:07:33.666Z,98809.63
2022-09-15T01:10:07.189Z,98804.03
2022-09-15T01:12:34.064Z,98804.03
2022-09-15T01:15:01.789Z,98804.19
2022-09-15T01:17:55.578Z,98805.34
2022-09-15T01:20:53.171Z,98806.50
2022-09-15T01:23:58.593Z,98807.22
2022-09-15T01:26:46.958Z,98795.94
2022-09-15T01:29:47.213Z,98790.25
2022-09-15T01:33:04.189Z,98792.50
2022-09-15T01:35:42.521Z,98793.72
2022-09-15T01:38:36.858Z,98787.09
2022-09-15T01:41:18.756Z,98783.34
2022-09-15T01:43:53.911Z,98786.22
2022-09-15T01:46:23.007Z,98790.56
2022-09-15T01:48:50.618Z,98781.44
2022-09-15T01:51:17.862Z,98777.91
2022-09-15T01:53:45.866Z,98777.91
2022-09-15T01:56:12.932Z,98778.53
2022-09-15T01:58:40.766Z,98783.31
2022-09-15T02:01:17.290Z,98775.97
2022-09-15T02:03:51.573Z,98781.91
2022-09-15T02:06:37.642Z,98779.91
2022-09-15T02:09:13.428Z,98779.69
2022-09-15T02:12:10.730Z,98791.31
2022-09-15T02:14:52.363Z,98782.78
2022-09-15T02:17:21.128Z,98781.50
2022-09-15T02:19:54.301Z,98777.81
2022-09-15T02:22:27.725Z,98776.97
2022-09-15T02:25:08.883Z,98779.69
2022-09-15T02:27:38.829Z,98770.78
2022-09-15T02:30:08.913Z,98770.56
2022-09-15T02:32:37.184Z,98772.66
2022-09-15T02:35:07.553Z,98773.28
2022-09-15T02:37:35.523Z,98763.75
2022-09-15T02:40:02.705Z,98769.97
2022-09-15T02:42:31.626Z,98761.06
2022-09-15T02:44:59.399Z,98758.13
2022-09-15T02:47:28.116Z,98763.31
2022-09-15T02:49:55.509Z,98763.31
2022-09-15T02:52:22.141Z,98761.63
2022-09-15T02:54:49.155Z,98771.16
2022-09-15T02:57:16.413Z,98772.66
2022-09-15T03:00:01.978Z,98765.19
2022-09-15T03:02:28.841Z,98762.69
2022-09-15T03:04:55.513Z,98770.94
2022-09-15T03:07:22.164Z,98763.06
2022-09-15T03:09:48.879Z,98765.38
2022-09-15T03:12:15.943Z,98760.81
2022-09-15T03:14:42.819Z,98769.16
2022-09-15T03:17:11.513Z,98771.59
2022-09-15T03:19:39.526Z,98767.25
2022-09-15T03:22:06.834Z,98765.19
2022-09-15T03:24:33.622Z,98771.16
2022-09-15T03:27:00.356Z,98766.22
2022-09-15T03:29:39.418Z,98773.72
2022-09-15T03:32:06.876Z,98767.25
2022-09-15T03:34:33.558Z,98763.75
2022-09-15T03:37:00.146Z,98761.63
2022-09-15T03:39:28.831Z,98775.97
2022-09-15T03:41:57.616Z,98762.88
2022-09-15T03:44:24.549Z,98768.91
2022-09-15T03:46:51.373Z,98761.06
2022-09-15T03:49:18.014Z,98757.31
2022-09-15T03:51:44.844Z,98750.06
2022-09-15T03:54:11.746Z,98762.69
2022-09-15T03:56:38.464Z,98752.09
2022-09-15T03:59:09.469Z,98755.84
2022-09-15T04:01:36.148Z,98754.78
2022-09-15T04:04:02.932Z,98756.66
2022-09-15T04:06:29.568Z,98756.91
2022-09-15T04:09:00.016Z,98752.78
2022-09-15T04:11:26.777Z,98750.91
2022-09-15T04:13:53.874Z,98749.03
2022-09-15T04:16:24.547Z,98753.00
2022-09-15T04:18:55.100Z,98753.59
2022-09-15T04:21:24.260Z,98746.34
2022-09-15T04:23:53.178Z,98748.22
2022-09-15T04:26:32.934Z,98747.66
2022-09-15T04:29:04.458Z,98754.88
2022-09-15T04:31:35.784Z,98751.56
2022-09-15T04:34:02.475Z,98751.94
2022-09-15T04:36:31.265Z,98760.03
2022-09-15T04:38:58.125Z,98755.47
2022-09-15T04:41:26.316Z,98768.72
2022-09-15T04:43:53.204Z,98760.63
2022-09-15T04:46:20.138Z,98774.09
2022-09-15T04:48:48.563Z,98771.19
2022-09-15T04:51:18.537Z,98770.59
2022-09-15T04:53:45.882Z,98769.75
2022-09-15T04:56:15.071Z,98774.09
2022-09-15T04:58:43.793Z,98776.19
2022-09-15T05:01:15.695Z,98774.91
2022-09-15T05:03:42.414Z,98769.16
2022-09-15T05:06:11.486Z,98775.97
2022-09-15T05:08:38.486Z,98770.59
2022-09-15T05:11:07.098Z,98783.22
2022-09-15T05:13:34.774Z,98775.34
2022-09-15T05:16:06.144Z,98784.69
2022-09-15T05:18:35.128Z,98790.50
2022-09-15T05:21:02.720Z,98788.63
2022-09-15T05:23:29.497Z,98786.94
2022-09-15T05:26:03.281Z,98792.78
2022-09-15T05:28:32.466Z,98784.25
2022-09-15T05:30:59.117Z,98792.56
2022-09-15T05:33:25.797Z,98801.47
2022-09-15T05:35:57.419Z,98796.28
2022-09-15T05:38:25.321Z,98800.41
2022-09-15T05:40:52.246Z,98802.53
2022-09-15T05:43:18.905Z,98797.72
2022-09-15T05:45:53.990Z,98806.91
2022-09-15T05:48:20.665Z,98806.66
2022-09-15T05:50:49.938Z,98812.06
2022-09-15T05:53:16.654Z,98818.53
2022-09-15T05:55:43.322Z,98814.16
2022-09-15T05:58:10.086Z,98816.25
2022-09-15T06:00:36.900Z,98805.88
2022-09-15T06:03:03.835Z,98810.84
2022-09-15T06:05:30.618Z,98815.22
2022-09-15T06:07:57.219Z,98821.25
2022-09-15T06:10:24.943Z,98821.03
2022-09-15T06:12:55.090Z,98819.63
2022-09-15T06:15:22.723Z,98814.81
2022-09-15T06:17:49.777Z,98820.81
2022-09-15T06:20:16.615Z,98829.69
2022-09-15T06:22:43.241Z,98817.91
2022-09-15T06:25:10.483Z,98817.28
2022-09-15T06:27:42.099Z,98825.19
2022-09-15T06:34:52.182Z,98840.53
2022-09-15T06:37:19.031Z,98857.31
2022-09-15T06:39:45.666Z,98853.38
2022-09-15T06:42:14.037Z,98846.28
2022-09-15T06:44:41.540Z,98842.78
2022-09-15T06:47:08.129Z,98860.00
2022-09-15T06:49:34.747Z,98851.69
2022-09-15T06:52:02.440Z,98855.63
2022-09-15T06:54:29.044Z,98854.38
2022-09-15T06:56:55.693Z,98860.84
2022-09-15T06:59:24.469Z,98868.75
2022-09-15T07:01:54.761Z,98865.78
2022-09-15T07:04:22.010Z,98871.53
2022-09-15T07:15:59.889Z,98889.88
2022-09-15T07:24:29.838Z,98891.59
2022-09-15T07:26:56.486Z,98913.69
2022-09-15T07:29:23.112Z,98916.41
2022-09-15T07:31:50.612Z,98922.56
2022-09-15T07:34:17.330Z,98934.19
2022-09-15T07:41:17.472Z,98931.50
2022-09-15T07:43:48.682Z,98930.06
2022-09-15T07:46:16.277Z,98933.13
2022-09-15T07:48:51.323Z,98932.78
2022-09-15T07:51:18.464Z,98947.44
2022-09-15T07:53:46.788Z,98949.75
2022-09-15T07:56:13.513Z,98953.66
2022-09-15T07:58:40.094Z,98967.53
2022-09-15T08:01:09.107Z,98972.88
2022-09-15T08:03:35.810Z,98971.25
2022-09-15T08:06:03.214Z,98975.16
2022-09-15T08:08:30.371Z,98976.16
2022-09-15T08:10:58.015Z,98984.22
2022-09-15T08:13:24.926Z,98986.63
2022-09-15T08:20:21.405Z,98995.78
2022-09-15T08:22:48.859Z,99000.53
2022-09-15T08:25:15.559Z,98999.72
2022-09-15T08:27:42.201Z,99008.16
2022-09-15T08:30:09.145Z,99002.59
2022-09-15T08:32:35.802Z,99004.66
2022-09-15T08:35:02.461Z,99012.88
2022-09-15T08:37:29.058Z,99012.75
2022-09-15T08:39:55.781Z,99018.94
2022-09-15T08:42:24.070Z,99014.19
2022-09-15T08:45:04.118Z,99020.31
2022-09-15T08:47:41.190Z,99023.19
2022-09-15T08:50:20.959Z,99029.38
2022-09-15T08:57:20.030Z,99034.03
2022-09-15T08:59:46.694Z,99042.94
2022-09-15T09:02:13.191Z,99043.75
2022-09-15T09:04:49.690Z,99047.88
2022-09-15T09:11:59.380Z,99045.63
2022-09-15T09:14:47.486Z,99045.00
2022-09-15T09:17:39.194Z,99052.22
2022-09-15T09:20:32.170Z,99052.41
2022-09-15T09:23:01.582Z,99050.38
2022-09-15T09:25:28.606Z,99051.66
2022-09-15T09:27:58.079Z,99054.72
2022-09-15T09:30:25.999Z,99049.38
2022-09-15T09:33:18.288Z,99050.38
2022-09-15T09:40:14.425Z,99052.88
2022-09-15T09:42:41.830Z,99049.59
2022-09-15T09:45:12.221Z,99046.06
2022-09-15T09:47:39.303Z,99049.81
2022-09-15T09:50:39.483Z,99041.94
2022-09-15T09:53:20.315Z,99034.91
2022-09-15T09:55:47.019Z,99040.31
2022-09-15T09:58:18.653Z,99050.84
2022-09-15T10:00:45.635Z,99050.00
2022-09-15T10:03:22.115Z,99047.94
2022-09-15T10:06:06.631Z,99049.97
2022-09-15T10:08:33.689Z,99050.63
2022-09-15T10:11:06.538Z,99062.19
2022-09-15T10:13:36.279Z,99061.31
2022-09-15T10:16:05.858Z,99070.06
2022-09-15T10:18:38.050Z,99085.38
2022-09-15T10:21:05.978Z,99083.09
2022-09-15T10:23:34.132Z,99096.94
2022-09-15T10:26:22.031Z,99112.06
2022-09-15T10:29:23.192Z,99108.72
2022-09-15T10:31:50.168Z,99105.44
2022-09-15T10:34:36.273Z,99097.75
2022-09-15T10:41:39.277Z,99097.38
2022-09-15T10:44:37.561Z,99095.50
2022-09-15T11:09:29.513Z,99089.94
2022-09-15T11:12:04.486Z,99087.84
2022-09-15T11:14:42.491Z,99083.50
2022-09-15T11:17:16.481Z,99075.88
2022-09-15T11:19:52.039Z,99081.88
2022-09-15T11:22:42.122Z,99095.53
2022-09-15T11:25:16.914Z,99103.16
2022-09-15T11:27:49.359Z,99104.44
2022-09-15T11:30:18.875Z,99105.25
2022-09-15T11:32:52.961Z,99101.50
2022-09-15T11:35:34.838Z,99113.31
2022-09-15T11:38:52.848Z,99111.88
2022-09-15T11:41:19.444Z,99116.03
2022-09-15T11:43:55.467Z,99120.75
2022-09-15T11:47:09.794Z,99121.78
2022-09-15T11:49:50.442Z,99115.81
2022-09-15T11:52:45.043Z,99117.03
2022-09-15T11:55:35.943Z,99131.56
2022-09-15T11:58:22.013Z,99125.38
2022-09-15T12:00:58.921Z,99124.97
2022-09-15T12:03:40.187Z,99130.72
2022-09-15T12:06:11.522Z,99121.84
2022-09-15T12:08:46.942Z,99133.59
2022-09-15T12:11:19.042Z,99133.41
2022-09-15T12:13:45.741Z,99131.56
2022-09-15T12:16:12.627Z,99135.91
2022-09-15T12:19:08.665Z,99144.81
2022-09-15T12:21:46.117Z,99143.56
2022-09-15T12:24:17.503Z,99138.81
2022-09-15T12:26:46.565Z,99148.75
2022-09-15T12:29:22.203Z,99151.41
2022-09-15T12:31:48.811Z,99145.22
2022-09-15T12:34:25.613Z,99155.78
2022-09-15T12:37:06.663Z,99155.16
2022-09-15T12:39:39.832Z,99155.16
2022-09-15T12:42:14.080Z,99159.09
2022-09-15T12:44:44.616Z,99157.03
2022-09-15T12:47:31.702Z,99159.50
2022-09-15T12:50:07.765Z,99159.69
2022-09-15T12:52:55.709Z,99156.81
2022-09-15T12:55:24.998Z,99156.16
2022-09-15T12:57:54.145Z,99155.34
2022-09-15T13:00:20.669Z,99149.94
2022-09-15T13:02:48.946Z,99145.16
2022-09-15T13:05:41.631Z,99139.59
2022-09-15T13:08:24.445Z,99145.59
2022-09-15T13:11:09.823Z,99146.84
2022-09-15T13:13:47.458Z,99150.56
2022-09-15T13:16:19.376Z,99142.91
2022-09-15T13:18:47.210Z,99123.84
2022-09-15T13:21:16.900Z,99138.72
2022-09-15T13:23:47.975Z,99133.34
2022-09-15T13:26:18.311Z,99133.78
2022-09-15T13:28:47.749Z,99139.78
2022-09-15T13:31:37.693Z,99136.06
2022-09-15T13:38:06.822Z,99135.25
2022-09-15T13:41:05.245Z,99132.78
2022-09-15T13:44:11.122Z,99133.19
2022-09-15T13:46:59.212Z,99137.94
2022-09-15T13:49:44.893Z,99139.38
2022-09-15T13:52:19.047Z,99136.31
2022-09-15T13:55:26.253Z,99136.31
2022-09-15T14:00:55.661Z,99136.31
2022-09-15T14:03:47.505Z,99132.78
2022-09-15T14:06:20.307Z,99137.31
2022-09-15T14:08:47.942Z,99140.06
2022-09-15T14:11:15.958Z,99143.34
2022-09-15T14:13:46.737Z,99142.53
2022-09-15T14:16:29.206Z,99139.22
2022-09-15T14:18:58.292Z,99135.50
2022-09-15T14:21:27.238Z,99132.81
2022-09-15T14:23:56.116Z,99144.19
2022-09-15T14:26:26.381Z,99136.72
2022-09-15T14:28:56.534Z,99139.00
2022-09-15T14:31:32.023Z,99139.00
2022-09-15T14:33:59.097Z,99139.63
2022-09-15T14:36:29.169Z,99141.25
2022-09-15T14:39:08.772Z,99140.84
2022-09-15T14:41:36.567Z,99142.31
2022-09-15T14:47:20.714Z,99135.06
2022-09-15T14:49:47.873Z,99138.38
2022-09-15T14:52:27.147Z,99146.06
2022-09-15T14:54:59.674Z,99140.03
2022-09-15T14:57:30.862Z,99146.44
2022-09-15T15:00:02.536Z,99147.06
2022-09-15T15:02:48.573Z,99142.94
2022-09-15T15:05:19.752Z,99142.91
2022-09-15T15:07:46.406Z,99144.97
2022-09-15T15:10:24.303Z,99152.81
2022-09-15T15:12:59.139Z,99152.44
2022-09-15T15:15:27.141Z,99139.34
2022-09-15T15:17:54.598Z,99148.69
2022-09-15T15:20:30.443Z,99146.00
2022-09-15T15:23:20.550Z,99150.97
2022-09-15T15:25:47.177Z,99147.44
2022-09-15T15:28:36.951Z,99149.53
2022-09-15T15:31:06.370Z,99147.22
2022-09-15T15:33:33.459Z,99145.13
2022-09-15T15:36:07.229Z,99141.00
2022-09-15T15:38:47.510Z,99144.75
2022-09-15T15:41:20.186Z,99148.50
2022-09-15T15:44:03.413Z,99153.28
2022-09-15T15:46:49.016Z,99151.44
2022-09-15T15:49:16.152Z,99151.22
2022-09-15T15:51:42.966Z,99153.91
2022-09-15T15:54:09.744Z,99157.22
2022-09-15T15:56:37.993Z,99158.44
2022-09-15T15:59:05.806Z,99154.53
2022-09-15T16:01:33.166Z,99160.75
2022-09-15T16:03:59.894Z,99164.06
2022-09-15T16:06:26.566Z,99166.56
2022-09-15T16:08:53.595Z,99164.06
2022-09-15T16:11:21.264Z,99173.38
2022-09-15T16:13:48.269Z,99166.56
2022-09-15T16:16:23.731Z,99168.59
2022-09-15T16:18:50.747Z,99168.38
2022-09-15T16:21:21.326Z,99171.31
2022-09-15T16:23:49.009Z,99176.47
2022-09-15T16:26:18.641Z,99175.88
2022-09-15T16:28:45.503Z,99176.25
2022-09-15T16:31:13.726Z,99178.94
2022-09-15T16:33:42.092Z,99186.19
2022-09-15T16:36:12.313Z,99178.34
2022-09-15T16:38:44.197Z,99184.97
2022-09-15T16:41:25.681Z,99189.09
2022-09-15T16:43:58.330Z,99189.31
2022-09-15T16:46:28.838Z,99194.69
2022-09-15T16:48:55.693Z,99195.53
2022-09-15T16:51:28.789Z,99200.28
2022-09-15T16:53:57.885Z,99199.47
2022-09-15T16:56:24.673Z,99202.16
2022-09-15T16:58:58.759Z,99204.41
2022-09-15T17:01:26.703Z,99208.97
2022-09-15T17:03:53.471Z,99208.56
2022-09-15T17:06:21.876Z,99211.44
2022-09-15T17:08:48.596Z,99211.44
2022-09-15T17:11:19.409Z,99213.69
2022-09-15T17:13:46.674Z,99210.59
2022-09-15T17:16:14.840Z,99220.72
2022-09-15T17:18:41.585Z,99215.75
2022-09-15T17:21:12.494Z,99224.00
2022-09-15T17:23:40.939Z,99228.78
2022-09-15T17:26:15.970Z,99231.03
2022-09-15T17:33:33.413Z,99225.53
2022-09-15T17:36:01.234Z,99222.09
2022-09-15T17:38:28.861Z,99220.03
2022-09-15T17:40:57.453Z,99224.16
2022-09-15T17:43:28.847Z,99218.38
2022-09-15T17:45:55.818Z,99222.50
2022-09-15T17:48:22.690Z,99226.00
2022-09-15T17:50:49.575Z,99223.53
2022-09-15T17:53:22.684Z,99228.44
2022-09-15T17:55:50.732Z,99222.69
2022-09-15T17:58:18.226Z,99217.69
2022-09-15T18:00:45.817Z,99224.94
2022-09-15T18:03:18.983Z,99226.34
2022-09-15T18:05:45.819Z,99233.00
2022-09-15T18:08:12.850Z,99223.25
2022-09-15T18:10:39.757Z,99229.88
2022-09-15T18:13:06.986Z,99231.91
2022-09-15T18:15:34.934Z,99233.78
2022-09-15T18:18:04.181Z,99235.84
2022-09-15T18:20:32.710Z,99240.56
2022-09-15T18:27:32.481Z,99246.13
2022-09-15T18:29:59.217Z,99242.81
2022-09-15T18:32:26.237Z,99247.56
2022-09-15T18:34:53.857Z,99248.59
2022-09-15T18:37:20.725Z,99247.75
2022-09-15T18:39:47.448Z,99253.94
2022-09-15T18:42:14.147Z,99258.03
2022-09-15T18:44:40.760Z,99254.06
2022-09-15T18:47:07.382Z,99266.91
2022-09-15T18:49:34.953Z,99269.78
2022-09-15T18:52:02.913Z,99265.63
2022-09-15T18:54:29.681Z,99266.03
2022-09-15T18:56:56.493Z,99267.97
2022-09-15T19:03:29.700Z,99275.75
2022-09-15T19:05:56.559Z,99274.31
2022-09-15T19:08:23.280Z,99282.59
2022-09-15T19:11:45.403Z,99285.28
2022-09-15T19:14:11.994Z,99287.66
2022-09-15T19:16:56.351Z,99285.19
2022-09-15T19:19:24.098Z,99289.09
2022-09-15T19:21:50.792Z,99287.22
2022-09-15T19:24:17.409Z,99287.41
2022-09-15T19:26:46.628Z,99288.63
2022-09-15T19:29:13.944Z,99296.69
2022-09-15T19:31:42.170Z,99285.13
2022-09-15T19:34:37.063Z,99286.72
2022-09-15T19:37:08.039Z,99278.69
2022-09-15T19:39:38.609Z,99276.81
2022-09-15T19:42:06.597Z,99283.84
2022-09-15T19:44:33.646Z,99276.03
2022-09-15T19:47:00.513Z,99280.34
2022-09-15T19:49:27.326Z,99289.59
2022-09-15T19:51:57.015Z,99279.50
2022-09-15T19:54:26.300Z,99289.78
2022-09-15T19:56:53.374Z,99291.25
2022-09-15T19:59:20.524Z,99285.88
2022-09-15T20:01:47.481Z,99286.72
2022-09-15T20:04:14.791Z,99291.31
2022-09-15T20:06:41.815Z,99288.25
2022-09-15T20:09:09.375Z,99283.09
2022-09-15T20:11:36.501Z,99284.09
2022-09-15T20:14:03.470Z,99291.25
2022-09-15T20:17:49.305Z,99295.81
2022-09-15T20:20:16.212Z,99293.75
2022-09-15T20:22:42.876Z,99284.88
2022-09-15T20:25:09.487Z,99291.06
2022-09-15T20:28:26.289Z,99296.91
2022-09-15T20:31:03.874Z,99289.09
2022-09-15T20:33:31.605Z,99294.41
2022-09-15T20:36:06.593Z,99294.91
2022-09-15T20:38:34.286Z,99293.31
2022-09-15T20:41:01.422Z,99297.00
2022-09-15T20:43:28.565Z,99301.56
2022-09-15T20:46:00.208Z,99290.50
2022-09-15T20:48:32.306Z,99293.63
2022-09-15T20:51:06.422Z,99295.75
2022-09-15T20:53:35.717Z,99294.22
2022-09-15T20:56:02.955Z,99294.03
2022-09-15T20:58:29.806Z,99293.81
2022-09-15T21:01:06.511Z,99299.63
2022-09-15T21:03:34.312Z,99298.75
2022-09-15T21:06:06.717Z,99300.16
2022-09-15T21:08:34.352Z,99295.59
2022-09-15T21:11:01.812Z,99301.81
2022-09-15T21:13:33.598Z,99307.13
2022-09-15T21:16:02.104Z,99306.72
2022-09-15T21:18:34.003Z,99304.94
2022-09-15T21:21:09.472Z,99309.47
2022-09-15T21:23:44.285Z,99309.16
2022-09-15T21:26:15.840Z,99311.88
2022-09-15T21:28:43.552Z,99314.00
2022-09-15T21:31:15.284Z,99314.38
2022-09-15T21:33:42.503Z,99309.28
2022-09-15T21:36:11.700Z,99310.06
2022-09-15T21:38:40.373Z,99309.47
2022-09-15T21:41:09.302Z,99320.13
2022-09-15T21:43:39.184Z,99324.84
2022-09-15T21:46:08.409Z,99324.41
2022-09-15T21:48:35.797Z,99325.03
2022-09-15T21:51:04.063Z,99328.56
2022-09-15T21:53:30.767Z,99323.38
2022-09-15T21:56:00.849Z,99333.03
2022-09-15T21:58:31.878Z,99326.25
2022-09-15T22:00:58.674Z,99330.72
2022-09-15T22:03:25.470Z,99331.16
2022-09-15T22:05:52.170Z,99323.94
2022-09-15T22:08:19.304Z,99328.88
2022-09-15T22:10:46.118Z,99330.91
2022-09-15T22:13:12.799Z,99327.41
2022-09-15T22:15:39.456Z,99329.59
2022-09-15T22:18:07.270Z,99333.75
2022-09-15T22:20:33.961Z,99327.78
2022-09-15T22:23:01.323Z,99333.13
2022-09-15T22:25:28.922Z,99332.28
2022-09-15T22:27:55.573Z,99334.63
2022-09-15T22:30:22.260Z,99334.31
2022-09-15T22:32:49.046Z,99343.34
2022-09-15T22:35:17.438Z,99337.00
2022-09-15T22:37:44.055Z,99346.03
2022-09-15T22:40:11.052Z,99339.03
2022-09-15T22:42:37.909Z,99345.13
2022-09-15T22:45:05.107Z,99347.19
2022-09-15T22:47:33.148Z,99351.50
2022-09-15T22:49:59.768Z,99347.25
2022-09-15T22:52:26.397Z,99345.97
2022-09-15T22:54:53.058Z,99345.78
2022-09-15T22:57:19.708Z,99340.78
2022-09-15T22:59:46.595Z,99353.16
2022-09-15T23:02:13.544Z,99351.97
2022-09-15T23:04:40.316Z,99358.91
2022-09-15T23:07:07.073Z,99371.50
2022-09-15T23:09:34.188Z,99360.94
2022-09-15T23:12:00.948Z,99365.28
2022-09-15T23:14:27.645Z,99360.75
2022-09-15T23:16:54.433Z,99360.94
2022-09-15T23:19:21.295Z,99359.13
2022-09-15T23:21:47.964Z,99362.06
2022-09-15T23:24:14.954Z,99362.63
2022-09-15T23:26:41.598Z,99359.00
2022-09-15T23:29:08.209Z,99350.31
2022-09-15T23:31:35.108Z,99353.63
2022-09-15T23:34:02.099Z,99347.25
2022-09-15T23:36:30.025Z,99356.50
2022-09-15T23:38:56.762Z,99352.16
2022-09-15T23:41:24.603Z,99353.00
2022-09-15T23:43:51.245Z,99351.97
2022-09-15T23:46:17.980Z,99354.03
2022-09-15T23:48:44.755Z,99343.75
2022-09-15T23:51:11.544Z,99355.28
2022-09-15T23:53:38.384Z,99356.13
2022-09-15T23:56:05.173Z,99356.13
2022-09-15T23:58:31.828Z,99354.47
